Bookmark and Share
Track history (hours):
 

Mindoro

Last reported at 2014-Apr-20 03:31 UTC. Time now 2014-Apr-20 16:07 UTC.
Position N 38°20' E 008°27'.

Length 245 m; draft 8.3 m.

Type: Ship (hazmat cat A). MMSI: 240924000.

NotesDate/timePositionNaut miles runAvg speedWind from/ knotsBaromVisibWave heightAir tempDewpointWater temp
2014-Apr-20 03:31N 38°20' E 008°27'12 8.3
2014-Apr-20 02:07N 38°29' E 008°37'6 8.4
2014-Apr-20 01:22N 38°33' E 008°43'7 8.6
2014-Apr-20 00:32N 38°38' E 008°49'8 8.4
2014-Apr-19 23:33N 38°44' E 008°57'9 8.5
2014-Apr-19 22:33N 38°51' E 009°04'9 8.8
2014-Apr-19 21:33N 38°58' E 009°10'6 6.4
2014-Apr-19 20:32N 39°04' E 009°06'3 2.6
2014-Apr-19 19:32N 39°05' E 009°03'0 0.0
2014-Apr-19 18:32N 39°05' E 009°03'0 0.0
2014-Apr-19 17:32N 39°05' E 009°03'0 0.0
2014-Apr-19 16:32N 39°05' E 009°03'0 0.0
2014-Apr-19 15:32N 39°05' E 009°03'0 0.0
2014-Apr-19 14:32N 39°05' E 009°03'0 0.0
2014-Apr-19 13:32N 39°05' E 009°03'0 0.0
2014-Apr-19 12:32N 39°05' E 009°03'0 0.0
2014-Apr-19 11:32N 39°05' E 009°03'0 0.0
2014-Apr-19 10:32N 39°05' E 009°03'0 0.0
2014-Apr-19 09:32N 39°05' E 009°03'0 0.0
2014-Apr-19 08:32N 39°05' E 009°03'0 0.0
2014-Apr-19 07:32N 39°05' E 009°03'0 0.0
2014-Apr-19 06:32N 39°05' E 009°03'0 0.0
2014-Apr-19 05:32N 39°05' E 009°03'0 0.0
2014-Apr-19 04:32N 39°05' E 009°03'0 0.0
2014-Apr-19 03:32N 39°05' E 009°03'0 0.0
2014-Apr-19 02:32N 39°05' E 009°03'0 0.0
2014-Apr-19 01:32N 39°05' E 009°03'0 0.0
2014-Apr-19 00:32N 39°05' E 009°03'0 0.0
2014-Apr-18 23:32N 39°05' E 009°03'0 0.0
2014-Apr-18 22:32N 39°05' E 009°03'0 0.0
2014-Apr-18 21:32N 39°05' E 009°03'0 0.0
2014-Apr-18 20:32N 39°05' E 009°03'0 0.0
2014-Apr-18 19:32N 39°05' E 009°03'0 0.0
2014-Apr-18 18:32N 39°05' E 009°03'0 0.0
2014-Apr-18 17:32N 39°05' E 009°03'0 0.0
2014-Apr-18 16:32N 39°05' E 009°03'0 0.0
2014-Apr-18 15:32N 39°05' E 009°03'0 0.0
2014-Apr-18 14:29N 39°05' E 009°03'2 1.7
2014-Apr-18 13:33N 39°05' E 009°05'8 7.6
2014-Apr-18 12:33N 39°01' E 009°13'1312.3
2014-Apr-18 11:32N 38°54' E 009°27'23911.4
2014-Apr-17 14:33N 36°46' E 013°43'1111.6
2014-Apr-17 13:33N 36°41' E 013°56'1211.6
2014-Apr-17 12:33N 36°37' E 014°09'1211.8
2014-Apr-17 11:33N 36°32' E 014°23'47211.4
2014-Apr-15 18:05N 35°42' E 024°04'711.5
2014-Apr-15 17:28N 35°41' E 024°13'1211.9
2014-Apr-15 16:27N 35°40' E 024°27'1111.9
2014-Apr-15 15:32N 35°38' E 024°41'1211.8
2014-Apr-15 14:33N 35°36' E 024°55'24 8.0
2014-Apr-15 11:33N 35°33' E 025°24'  

Dump ship's entire track history

sailing weather and tide predictions

Mindoro — SVAS8 — position and weather